sensor_id;sensor_type;location;lat;lon;timestamp;temperature;humidity
69335;SHT31;56477;52.742;15.242;2022-12-05T00:01:38;1.74;99.99
69335;SHT31;56477;52.742;15.242;2022-12-05T00:04:10;1.75;99.99
69335;SHT31;56477;52.742;15.242;2022-12-05T00:06:38;1.74;99.99
69335;SHT31;56477;52.742;15.242;2022-12-05T00:09:05;1.73;99.99
69335;SHT31;56477;52.742;15.242;2022-12-05T00:11:34;1.68;99.99
69335;SHT31;56477;52.742;15.242;2022-12-05T00:14:01;1.65;99.99
69335;SHT31;56477;52.742;15.242;2022-12-05T00:16:30;1.68;99.99
69335;SHT31;56477;52.742;15.242;2022-12-05T00:18:59;1.67;99.99
69335;SHT31;56477;52.742;15.242;2022-12-05T00:21:27;1.65;99.99
69335;SHT31;56477;52.742;15.242;2022-12-05T00:23:54;1.64;99.99
69335;SHT31;56477;52.742;15.242;2022-12-05T00:26:21;1.65;99.99
69335;SHT31;56477;52.742;15.242;2022-12-05T00:28:47;1.61;99.99
69335;SHT31;56477;52.742;15.242;2022-12-05T00:31:19;1.57;99.99
69335;SHT31;56477;52.742;15.242;2022-12-05T00:33:45;1.61;99.99
69335;SHT31;56477;52.742;15.242;2022-12-05T00:36:15;1.60;99.99
69335;SHT31;56477;52.742;15.242;2022-12-05T00:38:41;1.63;99.99
69335;SHT31;56477;52.742;15.242;2022-12-05T00:41:09;1.64;99.99
69335;SHT31;56477;52.742;15.242;2022-12-05T00:43:35;1.63;99.99
69335;SHT31;56477;52.742;15.242;2022-12-05T00:46:09;1.67;99.99
69335;SHT31;56477;52.742;15.242;2022-12-05T00:48:35;1.63;99.99
69335;SHT31;56477;52.742;15.242;2022-12-05T00:51:13;1.63;99.99
69335;SHT31;56477;52.742;15.242;2022-12-05T00:53:39;1.63;99.99
69335;SHT31;56477;52.742;15.242;2022-12-05T00:56:11;1.61;99.99
69335;SHT31;56477;52.742;15.242;2022-12-05T00:58:38;1.61;99.99
69335;SHT31;56477;52.742;15.242;2022-12-05T01:01:10;1.63;99.99
69335;SHT31;56477;52.742;15.242;2022-12-05T01:03:36;1.61;99.99
69335;SHT31;56477;52.742;15.242;2022-12-05T01:06:03;1.60;99.99
69335;SHT31;56477;52.742;15.242;2022-12-05T01:08:31;1.61;99.99
69335;SHT31;56477;52.742;15.242;2022-12-05T01:10:58;1.60;99.99
69335;SHT31;56477;52.742;15.242;2022-12-05T01:13:25;1.61;99.99
69335;SHT31;56477;52.742;15.242;2022-12-05T01:15:51;1.61;99.99
69335;SHT31;56477;52.742;15.242;2022-12-05T01:18:18;1.63;99.99
69335;SHT31;56477;52.742;15.242;2022-12-05T01:20:45;1.58;99.99
69335;SHT31;56477;52.742;15.242;2022-12-05T01:23:11;1.60;99.99
69335;SHT31;56477;52.742;15.242;2022-12-05T01:25:42;1.60;99.99
69335;SHT31;56477;52.742;15.242;2022-12-05T01:28:08;1.61;99.99
69335;SHT31;56477;52.742;15.242;2022-12-05T01:30:42;1.60;99.99
69335;SHT31;56477;52.742;15.242;2022-12-05T01:33:09;1.61;99.99
69335;SHT31;56477;52.742;15.242;2022-12-05T01:35:37;1.60;99.99
69335;SHT31;56477;52.742;15.242;2022-12-05T01:38:04;1.55;99.99
69335;SHT31;56477;52.742;15.242;2022-12-05T01:40:32;1.54;99.99
69335;SHT31;56477;52.742;15.242;2022-12-05T01:42:58;1.57;99.99
69335;SHT31;56477;52.742;15.242;2022-12-05T01:45:37;1.53;99.99
69335;SHT31;56477;52.742;15.242;2022-12-05T01:48:15;1.55;99.99
69335;SHT31;56477;52.742;15.242;2022-12-05T01:50:43;1.54;99.99
69335;SHT31;56477;52.742;15.242;2022-12-05T01:53:09;1.55;99.99
69335;SHT31;56477;52.742;15.242;2022-12-05T01:55:35;1.53;99.99
69335;SHT31;56477;52.742;15.242;2022-12-05T01:58:04;1.57;99.99
69335;SHT31;56477;52.742;15.242;2022-12-05T02:00:31;1.54;99.99
69335;SHT31;56477;52.742;15.242;2022-12-05T02:03:00;1.51;99.99
69335;SHT31;56477;52.742;15.242;2022-12-05T02:05:28;1.55;99.99
69335;SHT31;56477;52.742;15.242;2022-12-05T02:07:56;1.51;99.99
69335;SHT31;56477;52.742;15.242;2022-12-05T02:10:24;1.54;99.99
69335;SHT31;56477;52.742;15.242;2022-12-05T02:12:50;1.53;99.99
69335;SHT31;56477;52.742;15.242;2022-12-05T02:24:44;1.55;99.99
69335;SHT31;56477;52.742;15.242;2022-12-05T02:30:03;1.60;99.99
69335;SHT31;56477;52.742;15.242;2022-12-05T02:32:59;1.57;99.99
69335;SHT31;56477;52.742;15.242;2022-12-05T02:35:36;1.55;99.99
69335;SHT31;56477;52.742;15.242;2022-12-05T02:43:29;1.57;99.99
69335;SHT31;56477;52.742;15.242;2022-12-05T02:45:59;1.55;99.99
69335;SHT31;56477;52.742;15.242;2022-12-05T02:48:27;1.57;99.99
69335;SHT31;56477;52.742;15.242;2022-12-05T02:50:56;1.54;99.99
69335;SHT31;56477;52.742;15.242;2022-12-05T02:53:24;1.54;99.99
69335;SHT31;56477;52.742;15.242;2022-12-05T02:55:53;1.54;99.99
69335;SHT31;56477;52.742;15.242;2022-12-05T02:58:24;1.55;99.99
69335;SHT31;56477;52.742;15.242;2022-12-05T03:00:55;1.54;99.99
69335;SHT31;56477;52.742;15.242;2022-12-05T03:03:21;1.57;99.99
69335;SHT31;56477;52.742;15.242;2022-12-05T03:06:12;1.58;99.99
69335;SHT31;56477;52.742;15.242;2022-12-05T03:08:43;1.54;99.99
69335;SHT31;56477;52.742;15.242;2022-12-05T03:11:11;1.57;99.99
69335;SHT31;56477;52.742;15.242;2022-12-05T03:13:42;1.58;99.99
69335;SHT31;56477;52.742;15.242;2022-12-05T03:16:40;1.54;99.99
69335;SHT31;56477;52.742;15.242;2022-12-05T03:19:17;1.58;99.99
69335;SHT31;56477;52.742;15.242;2022-12-05T03:22:06;1.60;99.99
69335;SHT31;56477;52.742;15.242;2022-12-05T03:24:35;1.58;99.99
69335;SHT31;56477;52.742;15.242;2022-12-05T03:30:03;1.61;99.99
69335;SHT31;56477;52.742;15.242;2022-12-05T03:32:41;1.60;99.99
69335;SHT31;56477;52.742;15.242;2022-12-05T03:38:12;1.58;99.99
69335;SHT31;56477;52.742;15.242;2022-12-05T03:40:46;1.57;99.99
69335;SHT31;56477;52.742;15.242;2022-12-05T03:46:13;1.60;99.99
69335;SHT31;56477;52.742;15.242;2022-12-05T03:51:13;1.61;99.99
69335;SHT31;56477;52.742;15.242;2022-12-05T03:53:58;1.61;99.99
69335;SHT31;56477;52.742;15.242;2022-12-05T03:56:50;1.57;99.99
69335;SHT31;56477;52.742;15.242;2022-12-05T04:01:52;1.60;99.99
69335;SHT31;56477;52.742;15.242;2022-12-05T04:04:33;1.61;99.99
69335;SHT31;56477;52.742;15.242;2022-12-05T04:07:03;1.57;99.99
69335;SHT31;56477;52.742;15.242;2022-12-05T04:09:56;1.55;99.99
69335;SHT31;56477;52.742;15.242;2022-12-05T04:12:27;1.54;99.99
69335;SHT31;56477;52.742;15.242;2022-12-05T04:15:00;1.58;99.99
69335;SHT31;56477;52.742;15.242;2022-12-05T04:17:46;1.58;99.99
69335;SHT31;56477;52.742;15.242;2022-12-05T04:20:20;1.55;99.99
69335;SHT31;56477;52.742;15.242;2022-12-05T04:23:08;1.55;99.99
69335;SHT31;56477;52.742;15.242;2022-12-05T04:31:26;1.58;99.99
69335;SHT31;56477;52.742;15.242;2022-12-05T04:34:01;1.58;99.99
69335;SHT31;56477;52.742;15.242;2022-12-05T04:37:14;1.57;99.99
69335;SHT31;56477;52.742;15.242;2022-12-05T04:39:45;1.51;99.99
69335;SHT31;56477;52.742;15.242;2022-12-05T04:42:18;1.53;99.99
69335;SHT31;56477;52.742;15.242;2022-12-05T04:44:50;1.50;99.99
69335;SHT31;56477;52.742;15.242;2022-12-05T04:47:18;1.51;99.99
69335;SHT31;56477;52.742;15.242;2022-12-05T04:49:46;1.47;99.99
69335;SHT31;56477;52.742;15.242;2022-12-05T04:52:13;1.48;99.99
69335;SHT31;56477;52.742;15.242;2022-12-05T04:55:09;1.50;99.99
69335;SHT31;56477;52.742;15.242;2022-12-05T04:58:10;1.51;99.99
69335;SHT31;56477;52.742;15.242;2022-12-05T05:00:49;1.47;99.99
69335;SHT31;56477;52.742;15.242;2022-12-05T05:03:23;1.46;99.99
69335;SHT31;56477;52.742;15.242;2022-12-05T05:05:54;1.48;99.99
69335;SHT31;56477;52.742;15.242;2022-12-05T05:08:23;1.47;99.99
69335;SHT31;56477;52.742;15.242;2022-12-05T05:11:14;1.46;99.99
69335;SHT31;56477;52.742;15.242;2022-12-05T05:13:41;1.44;99.99
69335;SHT31;56477;52.742;15.242;2022-12-05T05:16:11;1.46;99.99
69335;SHT31;56477;52.742;15.242;2022-12-05T05:18:37;1.47;99.99
69335;SHT31;56477;52.742;15.242;2022-12-05T05:21:03;1.46;99.99
69335;SHT31;56477;52.742;15.242;2022-12-05T05:23:29;1.46;99.99
69335;SHT31;56477;52.742;15.242;2022-12-05T05:25:55;1.44;99.99
69335;SHT31;56477;52.742;15.242;2022-12-05T05:28:21;1.47;99.99
69335;SHT31;56477;52.742;15.242;2022-12-05T05:30:48;1.47;99.99
69335;SHT31;56477;52.742;15.242;2022-12-05T05:33:14;1.48;99.99
69335;SHT31;56477;52.742;15.242;2022-12-05T05:35:40;1.48;99.99
69335;SHT31;56477;52.742;15.242;2022-12-05T05:38:06;1.50;99.99
69335;SHT31;56477;52.742;15.242;2022-12-05T05:40:34;1.50;99.99
69335;SHT31;56477;52.742;15.242;2022-12-05T05:43:01;1.50;99.99
69335;SHT31;56477;52.742;15.242;2022-12-05T05:45:27;1.48;99.99
69335;SHT31;56477;52.742;15.242;2022-12-05T05:47:52;1.44;99.99
69335;SHT31;56477;52.742;15.242;2022-12-05T05:50:19;1.44;99.99
69335;SHT31;56477;52.742;15.242;2022-12-05T05:52:45;1.44;99.99
69335;SHT31;56477;52.742;15.242;2022-12-05T05:55:11;1.46;99.99
69335;SHT31;56477;52.742;15.242;2022-12-05T05:57:36;1.46;99.99
69335;SHT31;56477;52.742;15.242;2022-12-05T06:00:05;1.44;99.99
69335;SHT31;56477;52.742;15.242;2022-12-05T06:02:33;1.42;99.99
69335;SHT31;56477;52.742;15.242;2022-12-05T06:04:59;1.42;99.99
69335;SHT31;56477;52.742;15.242;2022-12-05T06:07:26;1.40;99.99
69335;SHT31;56477;52.742;15.242;2022-12-05T06:09:52;1.42;99.99
69335;SHT31;56477;52.742;15.242;2022-12-05T06:12:18;1.40;99.99
69335;SHT31;56477;52.742;15.242;2022-12-05T06:14:47;1.46;99.99
69335;SHT31;56477;52.742;15.242;2022-12-05T06:17:13;1.43;99.99
69335;SHT31;56477;52.742;15.242;2022-12-05T06:19:39;1.42;99.99
69335;SHT31;56477;52.742;15.242;2022-12-05T06:22:05;1.42;99.99
69335;SHT31;56477;52.742;15.242;2022-12-05T06:24:31;1.46;99.99
69335;SHT31;56477;52.742;15.242;2022-12-05T06:26:57;1.44;99.99
69335;SHT31;56477;52.742;15.242;2022-12-05T06:29:23;1.44;99.99
69335;SHT31;56477;52.742;15.242;2022-12-05T06:31:49;1.42;99.99
69335;SHT31;56477;52.742;15.242;2022-12-05T06:34:15;1.39;99.99
69335;SHT31;56477;52.742;15.242;2022-12-05T06:36:41;1.43;99.99
69335;SHT31;56477;52.742;15.242;2022-12-05T06:39:08;1.42;99.99
69335;SHT31;56477;52.742;15.242;2022-12-05T06:41:33;1.43;99.99
69335;SHT31;56477;52.742;15.242;2022-12-05T06:44:00;1.42;99.99
69335;SHT31;56477;52.742;15.242;2022-12-05T06:46:25;1.44;99.99
69335;SHT31;56477;52.742;15.242;2022-12-05T06:48:53;1.43;99.99
69335;SHT31;56477;52.742;15.242;2022-12-05T06:51:19;1.43;99.99
69335;SHT31;56477;52.742;15.242;2022-12-05T06:53:46;1.43;99.99
69335;SHT31;56477;52.742;15.242;2022-12-05T06:56:14;1.40;99.99
69335;SHT31;56477;52.742;15.242;2022-12-05T06:58:45;1.40;99.99
69335;SHT31;56477;52.742;15.242;2022-12-05T07:01:17;1.39;99.99
69335;SHT31;56477;52.742;15.242;2022-12-05T07:04:02;1.39;99.99
69335;SHT31;56477;52.742;15.242;2022-12-05T07:06:28;1.37;99.99
69335;SHT31;56477;52.742;15.242;2022-12-05T07:08:55;1.37;99.99
69335;SHT31;56477;52.742;15.242;2022-12-05T07:11:20;1.37;99.99
69335;SHT31;56477;52.742;15.242;2022-12-05T07:13:46;1.36;99.99
69335;SHT31;56477;52.742;15.242;2022-12-05T07:16:12;1.40;99.99
69335;SHT31;56477;52.742;15.242;2022-12-05T07:18:38;1.43;99.99
69335;SHT31;56477;52.742;15.242;2022-12-05T07:21:06;1.43;99.99
69335;SHT31;56477;52.742;15.242;2022-12-05T07:23:33;1.40;99.99
69335;SHT31;56477;52.742;15.242;2022-12-05T07:26:03;1.39;99.99
69335;SHT31;56477;52.742;15.242;2022-12-05T07:28:30;1.37;99.99
69335;SHT31;56477;52.742;15.242;2022-12-05T07:31:03;1.39;99.99
69335;SHT31;56477;52.742;15.242;2022-12-05T07:33:29;1.39;99.99
69335;SHT31;56477;52.742;15.242;2022-12-05T07:36:06;1.34;99.99
69335;SHT31;56477;52.742;15.242;2022-12-05T07:38:34;1.40;99.99
69335;SHT31;56477;52.742;15.242;2022-12-05T07:41:04;1.37;99.99
69335;SHT31;56477;52.742;15.242;2022-12-05T07:43:31;1.37;99.99
69335;SHT31;56477;52.742;15.242;2022-12-05T07:46:04;1.39;99.99
69335;SHT31;56477;52.742;15.242;2022-12-05T07:48:31;1.36;99.99
69335;SHT31;56477;52.742;15.242;2022-12-05T07:51:01;1.34;99.99
69335;SHT31;56477;52.742;15.242;2022-12-05T07:53:28;1.42;99.99
69335;SHT31;56477;52.742;15.242;2022-12-05T07:55:54;1.37;99.99
69335;SHT31;56477;52.742;15.242;2022-12-05T07:58:20;1.47;99.99
69335;SHT31;56477;52.742;15.242;2022-12-05T08:00:46;1.43;99.99
69335;SHT31;56477;52.742;15.242;2022-12-05T08:03:12;1.44;99.99
69335;SHT31;56477;52.742;15.242;2022-12-05T08:05:38;1.40;99.99
69335;SHT31;56477;52.742;15.242;2022-12-05T08:08:04;1.42;99.99
69335;SHT31;56477;52.742;15.242;2022-12-05T08:10:30;1.42;99.99
69335;SHT31;56477;52.742;15.242;2022-12-05T08:12:56;1.43;99.99
69335;SHT31;56477;52.742;15.242;2022-12-05T08:15:22;1.44;99.99
69335;SHT31;56477;52.742;15.242;2022-12-05T08:17:48;1.43;99.99
69335;SHT31;56477;52.742;15.242;2022-12-05T08:20:14;1.46;99.99
69335;SHT31;56477;52.742;15.242;2022-12-05T08:22:41;1.47;99.99
69335;SHT31;56477;52.742;15.242;2022-12-05T08:25:07;1.42;99.99
69335;SHT31;56477;52.742;15.242;2022-12-05T08:27:33;1.43;99.99
69335;SHT31;56477;52.742;15.242;2022-12-05T08:29:59;1.43;99.99
69335;SHT31;56477;52.742;15.242;2022-12-05T08:32:25;1.40;99.99
69335;SHT31;56477;52.742;15.242;2022-12-05T08:34:52;1.40;99.99
69335;SHT31;56477;52.742;15.242;2022-12-05T08:37:21;1.42;99.99
69335;SHT31;56477;52.742;15.242;2022-12-05T08:39:47;1.46;99.99
69335;SHT31;56477;52.742;15.242;2022-12-05T08:42:13;1.42;99.99
69335;SHT31;56477;52.742;15.242;2022-12-05T08:44:39;1.42;99.99
69335;SHT31;56477;52.742;15.242;2022-12-05T08:47:06;1.43;99.99
69335;SHT31;56477;52.742;15.242;2022-12-05T08:49:32;1.47;99.99
69335;SHT31;56477;52.742;15.242;2022-12-05T08:51:58;1.47;99.99
69335;SHT31;56477;52.742;15.242;2022-12-05T08:54:24;1.46;99.99
69335;SHT31;56477;52.742;15.242;2022-12-05T08:56:50;1.46;99.99
69335;SHT31;56477;52.742;15.242;2022-12-05T08:59:16;1.46;99.99
69335;SHT31;56477;52.742;15.242;2022-12-05T09:01:42;1.47;99.99
69335;SHT31;56477;52.742;15.242;2022-12-05T09:04:08;1.47;99.99
69335;SHT31;56477;52.742;15.242;2022-12-05T09:06:35;1.50;99.99
69335;SHT31;56477;52.742;15.242;2022-12-05T09:09:04;1.53;99.99
69335;SHT31;56477;52.742;15.242;2022-12-05T09:11:34;1.53;99.99
69335;SHT31;56477;52.742;15.242;2022-12-05T09:14:01;1.55;99.99
69335;SHT31;56477;52.742;15.242;2022-12-05T09:16:35;1.54;99.99
69335;SHT31;56477;52.742;15.242;2022-12-05T09:19:01;1.57;99.99
69335;SHT31;56477;52.742;15.242;2022-12-05T09:21:29;1.60;99.99
69335;SHT31;56477;52.742;15.242;2022-12-05T09:23:57;1.60;99.99
69335;SHT31;56477;52.742;15.242;2022-12-05T09:26:25;1.60;99.99
69335;SHT31;56477;52.742;15.242;2022-12-05T09:28:51;1.63;99.99
69335;SHT31;56477;52.742;15.242;2022-12-05T09:31:23;1.65;99.99
69335;SHT31;56477;52.742;15.242;2022-12-05T09:33:50;1.63;99.99
69335;SHT31;56477;52.742;15.242;2022-12-05T09:36:19;1.60;99.99
69335;SHT31;56477;52.742;15.242;2022-12-05T09:38:46;1.58;99.99
69335;SHT31;56477;52.742;15.242;2022-12-05T09:41:47;1.58;99.99
69335;SHT31;56477;52.742;15.242;2022-12-05T09:49:57;1.61;99.99
69335;SHT31;56477;52.742;15.242;2022-12-05T09:52:36;1.60;99.99
69335;SHT31;56477;52.742;15.242;2022-12-05T09:55:16;1.61;99.99
69335;SHT31;56477;52.742;15.242;2022-12-05T09:58:17;1.61;99.99
69335;SHT31;56477;52.742;15.242;2022-12-05T10:00:45;1.61;99.99
69335;SHT31;56477;52.742;15.242;2022-12-05T10:03:28;1.67;99.99
69335;SHT31;56477;52.742;15.242;2022-12-05T10:06:05;1.65;99.99
69335;SHT31;56477;52.742;15.242;2022-12-05T10:11:36;1.64;99.99
69335;SHT31;56477;52.742;15.242;2022-12-05T10:16:52;1.67;99.99
69335;SHT31;56477;52.742;15.242;2022-12-05T10:19:27;1.64;99.99
69335;SHT31;56477;52.742;15.242;2022-12-05T10:22:09;1.64;99.99
69335;SHT31;56477;52.742;15.242;2022-12-05T10:25:00;1.65;99.99
69335;SHT31;56477;52.742;15.242;2022-12-05T10:27:35;1.65;99.99
69335;SHT31;56477;52.742;15.242;2022-12-05T10:30:22;1.68;99.99
69335;SHT31;56477;52.742;15.242;2022-12-05T10:35:34;1.73;99.99
69335;SHT31;56477;52.742;15.242;2022-12-05T10:38:06;1.75;99.99
69335;SHT31;56477;52.742;15.242;2022-12-05T10:40:39;1.77;99.99
69335;SHT31;56477;52.742;15.242;2022-12-05T10:43:07;1.73;99.99
69335;SHT31;56477;52.742;15.242;2022-12-05T10:45:43;1.70;99.99
69335;SHT31;56477;52.742;15.242;2022-12-05T10:48:11;1.70;99.99
69335;SHT31;56477;52.742;15.242;2022-12-05T10:50:39;1.74;99.99
69335;SHT31;56477;52.742;15.242;2022-12-05T10:53:07;1.71;99.99
69335;SHT31;56477;52.742;15.242;2022-12-05T10:55:35;1.75;99.99
69335;SHT31;56477;52.742;15.242;2022-12-05T11:00:36;1.82;99.99
69335;SHT31;56477;52.742;15.242;2022-12-05T11:05:49;1.79;99.99
69335;SHT31;56477;52.742;15.242;2022-12-05T11:08:28;1.79;99.99
69335;SHT31;56477;52.742;15.242;2022-12-05T11:11:09;1.81;99.99
69335;SHT31;56477;52.742;15.242;2022-12-05T11:13:55;1.79;99.99
69335;SHT31;56477;52.742;15.242;2022-12-05T11:16:24;1.75;99.99
69335;SHT31;56477;52.742;15.242;2022-12-05T11:18:50;1.77;99.99
69335;SHT31;56477;52.742;15.242;2022-12-05T11:21:18;1.78;99.99
69335;SHT31;56477;52.742;15.242;2022-12-05T11:23:45;1.75;99.99
69335;SHT31;56477;52.742;15.242;2022-12-05T11:26:36;1.78;99.99
69335;SHT31;56477;52.742;15.242;2022-12-05T11:29:03;1.84;99.99
69335;SHT31;56477;52.742;15.242;2022-12-05T11:31:30;1.84;99.99
69335;SHT31;56477;52.742;15.242;2022-12-05T11:34:20;1.86;99.99
69335;SHT31;56477;52.742;15.242;2022-12-05T11:36:57;1.86;99.99
69335;SHT31;56477;52.742;15.242;2022-12-05T11:39:24;1.82;99.99
69335;SHT31;56477;52.742;15.242;2022-12-05T11:52:56;1.85;99.99
69335;SHT31;56477;52.742;15.242;2022-12-05T11:55:25;1.86;99.99
69335;SHT31;56477;52.742;15.242;2022-12-05T11:58:16;1.78;99.99
69335;SHT31;56477;52.742;15.242;2022-12-05T12:11:23;1.86;99.99
69335;SHT31;56477;52.742;15.242;2022-12-05T12:20:01;1.82;99.99
69335;SHT31;56477;52.742;15.242;2022-12-05T12:22:51;1.85;99.99
69335;SHT31;56477;52.742;15.242;2022-12-05T12:31:05;1.85;99.99
69335;SHT31;56477;52.742;15.242;2022-12-05T12:39:09;1.75;99.99
69335;SHT31;56477;52.742;15.242;2022-12-05T12:47:10;1.74;99.99
69335;SHT31;56477;52.742;15.242;2022-12-05T12:52:12;1.73;99.99
69335;SHT31;56477;52.742;15.242;2022-12-05T12:54:45;1.77;99.99
69335;SHT31;56477;52.742;15.242;2022-12-05T13:00:37;1.73;99.99
69335;SHT31;56477;52.742;15.242;2022-12-05T13:03:12;1.75;99.99
69335;SHT31;56477;52.742;15.242;2022-12-05T13:05:50;1.71;99.99
69335;SHT31;56477;52.742;15.242;2022-12-05T13:08:38;1.74;99.99
69335;SHT31;56477;52.742;15.242;2022-12-05T13:11:09;1.74;99.99
69335;SHT31;56477;52.742;15.242;2022-12-05T13:13:47;1.75;99.99
69335;SHT31;56477;52.742;15.242;2022-12-05T13:16:22;1.79;99.99
69335;SHT31;56477;52.742;15.242;2022-12-05T13:18:50;1.77;99.99
69335;SHT31;56477;52.742;15.242;2022-12-05T13:21:16;1.79;99.99
69335;SHT31;56477;52.742;15.242;2022-12-05T13:23:47;1.82;99.99
69335;SHT31;56477;52.742;15.242;2022-12-05T13:26:15;1.81;99.99
69335;SHT31;56477;52.742;15.242;2022-12-05T13:28:48;1.82;99.99
69335;SHT31;56477;52.742;15.242;2022-12-05T13:31:15;1.78;99.99
69335;SHT31;56477;52.742;15.242;2022-12-05T13:33:47;1.81;99.99
69335;SHT31;56477;52.742;15.242;2022-12-05T13:36:14;1.81;99.99
69335;SHT31;56477;52.742;15.242;2022-12-05T13:39:04;1.79;99.99
69335;SHT31;56477;52.742;15.242;2022-12-05T13:41:54;1.81;99.99
69335;SHT31;56477;52.742;15.242;2022-12-05T13:44:49;1.84;99.99
69335;SHT31;56477;52.742;15.242;2022-12-05T13:49:53;1.84;99.99
69335;SHT31;56477;52.742;15.242;2022-12-05T13:52:23;1.84;99.99
69335;SHT31;56477;52.742;15.242;2022-12-05T14:05:34;1.81;99.99
69335;SHT31;56477;52.742;15.242;2022-12-05T14:11:05;1.85;99.99
69335;SHT31;56477;52.742;15.242;2022-12-05T14:19:05;1.84;99.99
69335;SHT31;56477;52.742;15.242;2022-12-05T14:24:53;1.86;99.99
69335;SHT31;56477;52.742;15.242;2022-12-05T14:32:36;1.84;99.99
69335;SHT31;56477;52.742;15.242;2022-12-05T14:35:43;1.79;99.99
69335;SHT31;56477;52.742;15.242;2022-12-05T14:38:21;1.81;99.99
69335;SHT31;56477;52.742;15.242;2022-12-05T14:40:48;1.82;99.99
69335;SHT31;56477;52.742;15.242;2022-12-05T14:43:40;1.82;99.99
69335;SHT31;56477;52.742;15.242;2022-12-05T14:46:15;1.84;99.99
69335;SHT31;56477;52.742;15.242;2022-12-05T14:48:45;1.85;99.99
69335;SHT31;56477;52.742;15.242;2022-12-05T14:54:12;1.88;99.99
69335;SHT31;56477;52.742;15.242;2022-12-05T14:56:41;1.84;99.99
69335;SHT31;56477;52.742;15.242;2022-12-05T15:01:57;1.85;99.99
69335;SHT31;56477;52.742;15.242;2022-12-05T15:04:41;1.86;99.99
69335;SHT31;56477;52.742;15.242;2022-12-05T15:07:11;1.84;99.99
69335;SHT31;56477;52.742;15.242;2022-12-05T15:12:46;1.81;99.99
69335;SHT31;56477;52.742;15.242;2022-12-05T15:15:29;1.86;99.99
69335;SHT31;56477;52.742;15.242;2022-12-05T15:21:31;1.86;99.99
69335;SHT31;56477;52.742;15.242;2022-12-05T15:26:26;1.88;99.99
69335;SHT31;56477;52.742;15.242;2022-12-05T15:29:09;1.89;99.99
69335;SHT31;56477;52.742;15.242;2022-12-05T15:32:03;1.89;99.99
69335;SHT31;56477;52.742;15.242;2022-12-05T15:34:47;1.91;99.99
69335;SHT31;56477;52.742;15.242;2022-12-05T15:39:55;1.88;99.99
69335;SHT31;56477;52.742;15.242;2022-12-05T15:42:28;1.92;99.99
69335;SHT31;56477;52.742;15.242;2022-12-05T15:45:20;1.92;99.99
69335;SHT31;56477;52.742;15.242;2022-12-05T15:47:55;1.91;99.99
69335;SHT31;56477;52.742;15.242;2022-12-05T15:50:31;1.85;99.99
69335;SHT31;56477;52.742;15.242;2022-12-05T15:53:02;1.86;99.99
69335;SHT31;56477;52.742;15.242;2022-12-05T15:55:39;1.86;99.99
69335;SHT31;56477;52.742;15.242;2022-12-05T15:58:22;1.89;99.99
69335;SHT31;56477;52.742;15.242;2022-12-05T16:00:53;1.89;99.99
69335;SHT31;56477;52.742;15.242;2022-12-05T16:06:18;1.89;99.99
69335;SHT31;56477;52.742;15.242;2022-12-05T16:08:48;1.86;99.99
69335;SHT31;56477;52.742;15.242;2022-12-05T16:11:15;1.89;99.99
69335;SHT31;56477;52.742;15.242;2022-12-05T16:13:47;1.91;99.99
69335;SHT31;56477;52.742;15.242;2022-12-05T16:16:22;1.94;99.99
69335;SHT31;56477;52.742;15.242;2022-12-05T16:18:55;1.95;99.99
69335;SHT31;56477;52.742;15.242;2022-12-05T16:21:35;1.98;99.99
69335;SHT31;56477;52.742;15.242;2022-12-05T16:24:18;2.01;99.99
69335;SHT31;56477;52.742;15.242;2022-12-05T16:27:12;1.99;99.99
69335;SHT31;56477;52.742;15.242;2022-12-05T16:29:39;1.98;99.99
69335;SHT31;56477;52.742;15.242;2022-12-05T16:32:23;1.95;99.99
69335;SHT31;56477;52.742;15.242;2022-12-05T16:34:50;1.98;99.99
69335;SHT31;56477;52.742;15.242;2022-12-05T16:37:25;1.98;99.99
69335;SHT31;56477;52.742;15.242;2022-12-05T16:39:52;1.98;99.99
69335;SHT31;56477;52.742;15.242;2022-12-05T16:42:28;1.98;99.99
69335;SHT31;56477;52.742;15.242;2022-12-05T16:44:58;1.92;99.99
69335;SHT31;56477;52.742;15.242;2022-12-05T16:50:33;1.94;99.99
69335;SHT31;56477;52.742;15.242;2022-12-05T16:55:37;1.95;99.99
69335;SHT31;56477;52.742;15.242;2022-12-05T16:58:04;1.97;99.99
69335;SHT31;56477;52.742;15.242;2022-12-05T17:00:31;1.97;99.99
69335;SHT31;56477;52.742;15.242;2022-12-05T17:02:57;1.95;99.99
69335;SHT31;56477;52.742;15.242;2022-12-05T17:05:24;1.97;99.99
69335;SHT31;56477;52.742;15.242;2022-12-05T17:07:50;1.95;99.99
69335;SHT31;56477;52.742;15.242;2022-12-05T17:10:17;1.97;99.99
69335;SHT31;56477;52.742;15.242;2022-12-05T17:12:43;1.97;99.99
69335;SHT31;56477;52.742;15.242;2022-12-05T17:15:16;1.99;99.99
69335;SHT31;56477;52.742;15.242;2022-12-05T17:17:43;2.01;99.99
69335;SHT31;56477;52.742;15.242;2022-12-05T17:20:09;2.01;99.99
69335;SHT31;56477;52.742;15.242;2022-12-05T17:22:38;1.99;99.99
69335;SHT31;56477;52.742;15.242;2022-12-05T17:25:29;2.06;99.99
69335;SHT31;56477;52.742;15.242;2022-12-05T17:27:57;2.05;99.99
69335;SHT31;56477;52.742;15.242;2022-12-05T17:30:26;2.04;99.99
69335;SHT31;56477;52.742;15.242;2022-12-05T17:32:52;2.06;99.99
69335;SHT31;56477;52.742;15.242;2022-12-05T17:35:20;2.01;99.99
69335;SHT31;56477;52.742;15.242;2022-12-05T17:37:47;1.99;99.99
69335;SHT31;56477;52.742;15.242;2022-12-05T17:40:14;2.04;99.99
69335;SHT31;56477;52.742;15.242;2022-12-05T17:42:40;2.04;99.99
69335;SHT31;56477;52.742;15.242;2022-12-05T17:45:11;2.04;99.99
69335;SHT31;56477;52.742;15.242;2022-12-05T17:47:37;2.01;99.99
69335;SHT31;56477;52.742;15.242;2022-12-05T17:50:04;2.04;99.99
69335;SHT31;56477;52.742;15.242;2022-12-05T17:52:30;2.04;99.99
69335;SHT31;56477;52.742;15.242;2022-12-05T17:54:58;2.02;99.99
69335;SHT31;56477;52.742;15.242;2022-12-05T17:57:23;2.02;99.99
69335;SHT31;56477;52.742;15.242;2022-12-05T17:59:50;2.01;99.99
69335;SHT31;56477;52.742;15.242;2022-12-05T18:02:15;2.04;99.99
69335;SHT31;56477;52.742;15.242;2022-12-05T18:04:45;2.01;99.99
69335;SHT31;56477;52.742;15.242;2022-12-05T18:07:11;2.04;99.99
69335;SHT31;56477;52.742;15.242;2022-12-05T18:09:37;2.01;99.99
69335;SHT31;56477;52.742;15.242;2022-12-05T18:12:03;2.01;99.99
69335;SHT31;56477;52.742;15.242;2022-12-05T18:14:29;2.02;99.99
69335;SHT31;56477;52.742;15.242;2022-12-05T18:16:56;2.05;99.99
69335;SHT31;56477;52.742;15.242;2022-12-05T18:19:22;2.01;99.99
69335;SHT31;56477;52.742;15.242;2022-12-05T18:21:48;2.02;99.99
69335;SHT31;56477;52.742;15.242;2022-12-05T18:24:14;2.02;99.99
69335;SHT31;56477;52.742;15.242;2022-12-05T18:26:41;1.99;99.99
69335;SHT31;56477;52.742;15.242;2022-12-05T18:29:07;2.04;99.99
69335;SHT31;56477;52.742;15.242;2022-12-05T18:31:33;1.99;99.99
69335;SHT31;56477;52.742;15.242;2022-12-05T18:33:59;2.01;99.99
69335;SHT31;56477;52.742;15.242;2022-12-05T18:36:25;2.02;99.99
69335;SHT31;56477;52.742;15.242;2022-12-05T18:38:54;2.01;99.99